Terminal Aerodrome Forecast
Issued by NWS

Home | Current Version | Previous Version | Text Only | Print | Product List | Glossary On
Versions: 1 2 3 4 5 6 7 8 9 10 11 12
000
FTUS44 KTSA 272300
TAFRVS
TAF
KRVS 272320Z 2800/2824 12007KT P6SM FEW060 SCT250
     FM280200 00000KT P6SM BKN250
     FM281400 18006KT P6SM SCT250
     FM281800 16008KT P6SM SCT060=

USA.gov is the U.S. government's official web portal to all federal, state and local government web resources and services.